KQ4Q-8 Weather Reports


time (UTC)temp
F
wind
direction
speed
knots
gust
knots
rain 1hr
in
rain 24hr
in
rain mn
in
humidity
%
barometer
mb
20260906112551 66 265 1.7 1.7 0.08 0.00 0.24 100 1017.0
20260906112052 66 326 1.7 1.7 0.09 0.00 0.10 100 1017.0
20260906111551 66 328 1.7 1.7 0.10 0.00 0.10 100 1017.0
20260906111051 66 322 1.7 1.7 0.10 0.00 0.10 100 1016.9
20260906110553 66 317 1.7 2.6 0.10 0.00 0.10 100 1016.8
20260906110051 66 257 1.7 1.7 0.09 0.00 0.10 100 1016.7
20260906105551 66 296 0.0 0.9 0.09 0.00 0.10 100 1016.5
20260906105143 65 295 0.0 0.0 0.09 0.00 0.10 100 1016.5
20260906104551 65 319 1.7 1.7 0.22 0.00 0.09 100 1016.5
20260906104051 65 330 1.7 1.7 0.22 0.00 0.09 100 1016.5
20260906103551 65 266 0.0 0.9 0.18 0.00 0.22 99 1016.3
20260906103052 65 323 0.9 1.7 0.05 0.00 0.22 99 1016.4
20260906102551 65 237 1.7 2.6 0.01 0.00 0.18 99 1016.4
20260906102051 66 228 1.7 2.6 0.01 0.00 0.14 98 1016.5
20260906101551 66 273 0.9 0.9 0.00 0.00 0.04 98 1016.4
20260906101051 66 215 0.9 1.7 0.00 0.00 0.01 98 1016.3
20260906100627 66 245 0.9 0.9 0.00 0.00 0.00 98 1016.3
20260906100052 66 279 0.9 0.9 0.00 0.00 0.00 97 1016.2
20260906095552 66 294 0.0 0.9 0.00 0.00 0.00 98 1016.2
20260906095051 65 309 0.9 1.7 0.00 0.00 0.00 98 1016.2
20260906094551 65 283 0.9 0.9 0.00 0.00 0.00 98 1016.1
20260906094051 65 208 1.7 1.7 0.00 0.00 0.00 98 1016.1
20260906093551 65 194 1.7 1.7 0.00 0.00 0.00 97 1016.1
20260906093051 65 294 0.9 1.7 0.00 0.00 0.00 97 1016.1
20260906092551 66 334 1.7 1.7 0.00 0.00 0.00 98 1016.1
20260906092051 65 319 0.9 2.6 0.00 0.00 0.00 99 1016.1
20260906091551 65 282 0.0 0.9 0.00 0.00 0.00 99 1016.1
20260906091051 65 231 1.7 1.7 0.00 0.00 0.00 99 1016.0
20260906090551 65 234 1.7 1.7 0.00 0.00 0.00 99 1016.0
20260906090051 65 290 0.9 0.9 0.00 0.00 0.00 99 1015.9
20260906085551 65 282 0.9 0.9 0.00 0.00 0.00 99 1015.9
20260906085051 64 222 1.7 1.7 0.00 0.00 0.00 99 1015.9
20260906084551 64 192 0.9 0.9 0.00 0.00 0.00 99 1015.9
20260906084051 64 280 0.9 0.9 0.00 0.00 0.00 99 1015.9
20260906083551 64 218 1.7 1.7 0.00 0.00 0.00 99 1015.9
20260906083051 64 207 1.7 1.7 0.00 0.00 0.00 99 1015.9
20260906082551 64 233 0.9 1.7 0.00 0.00 0.00 99 1016.0
20260906082050 64 283 0.0 0.9 0.00 0.00 0.00 99 1016.1
20260906081551 64 263 0.9 1.7 0.00 0.00 0.00 99 1016.1
20260906081051 64 242 0.9 1.7 0.00 0.00 0.00 99 1016.1
20260906080551 64 259 1.7 1.7 0.00 0.00 0.00 99 1016.1
20260906080051 64 285 0.9 1.7 0.00 0.00 0.00 99 1016.1
20260906075551 64 244 1.7 1.7 0.00 0.00 0.00 99 1016.0
20260906075051 64 270 0.9 1.7 0.00 0.00 0.00 99 1016.0
20260906074551 64 266 0.9 1.7 0.00 0.00 0.00 98 1016.0
20260906074051 64 237 1.7 1.7 0.00 0.00 0.00 99 1016.1
20260906073552 64 266 0.9 1.7 0.00 0.00 0.00 98 1016.2
20260906073051 64 261 0.9 1.7 0.00 0.00 0.00 98 1016.1
20260906072551 64 265 0.9 1.7 0.00 0.00 0.00 98 1016.2
20260906072051 65 237 0.9 1.7 0.00 0.00 0.00 98 1016.2
20260906071551 65 265 0.9 1.7 0.00 0.00 0.00 98 1016.2
20260906071051 65 248 0.9 1.7 0.00 0.00 0.00 98 1016.2
20260906070551 65 259 1.7 2.6 0.00 0.00 0.00 98 1016.2
20260906070051 65 264 1.7 1.7 0.00 0.00 0.00 98 1016.1
20260906065551 64 271 0.9 1.7 0.00 0.00 0.00 98 1016.2
20260906065051 64 269 0.9 0.9 0.00 0.00 0.00 97 1016.2
20260906064551 65 216 1.7 2.6 0.00 0.00 0.00 97 1016.2
20260906064051 65 236 0.9 1.7 0.00 0.00 0.00 98 1016.2
20260906063551 65 239 0.9 1.7 0.00 0.00 0.00 98 1016.2
20260906063051 65 274 0.9 0.9 0.00 0.00 0.00 98 1016.3
20260906062551 65 261 1.7 1.7 0.00 0.00 0.00 98 1016.4
20260906062051 65 263 0.9 1.7 0.00 0.00 0.00 98 1016.4
20260906061551 65 266 1.7 1.7 0.00 0.00 0.00 98 1016.7
20260906061051 65 251 1.7 1.7 0.00 0.00 0.00 97 1016.8
20260906060551 65 245 1.7 2.6 0.00 0.00 0.00 97 1016.8
20260906060051 65 263 1.7 1.7 0.00 0.00 0.00 97 1016.8
20260906055551 65 240 1.7 1.7 0.00 0.00 0.00 96 1016.9
20260906055052 65 235 1.7 1.7 0.00 0.00 0.00 97 1016.9
20260906054551 66 235 1.7 1.7 0.00 0.00 0.00 97 1016.8
20260906054051 66 290 0.0 1.7 0.00 0.00 0.00 97 1016.8
20260906053551 66 316 0.9 1.7 0.00 0.00 0.00 97 1016.7
20260906053053 66 270 0.9 1.7 0.00 0.00 0.00 97 1016.8
20260906052551 66 276 0.9 1.7 0.00 0.00 0.00 97 1016.8
20260906052050 66 267 1.7 1.7 0.00 0.00 0.00 97 1016.8
20260906051551 66 281 0.9 1.7 0.00 0.00 0.00 96 1016.8
20260906051051 66 273 1.7 1.7 0.00 0.00 0.00 96 1016.9
20260906050551 66 282 0.9 1.7 0.00 0.00 0.00 96 1016.9
20260906050051 66 267 0.9 1.7 0.00 0.00 0.00 95 1016.9
20260906045551 66 256 0.9 1.7 0.00 0.00 0.00 95 1016.9
20260906045052 67 291 0.9 0.9 0.00 0.00 0.00 95 1016.8
20260906044551 67 280 0.9 0.9 0.00 0.00 0.00 94 1016.8
20260906044051 67 259 0.9 1.7 0.00 0.00 0.00 93 1016.7
20260906043552 67 277 0.9 0.9 0.00 0.00 0.00 93 1016.7
20260906043051 67 261 0.9 1.7 0.00 0.00 0.00 93 1016.5
20260906042551 67 279 0.9 0.9 0.00 0.00 0.00 93 1016.5
20260906042051 67 265 0.9 1.7 0.00 0.00 0.00 93 1016.5
20260906041551 67 269 0.9 1.7 0.00 0.00 0.00 93 1016.5
20260906040622 67 247 1.7 1.7 0.00 0.00 0.00 92 1016.7
20260906040051 67 278 0.9 1.7 0.00 0.00 0.00 93 1016.8
20260906035550 67 273 0.9 1.7 0.00 0.00 0.00 92 1016.8
20260906035051 67 266 1.7 1.7 0.00 0.00 0.00 92 1016.8
20260906034551 67 261 1.7 1.7 0.00 0.00 0.00 92 1016.9
20260906034053 67 271 1.7 1.7 0.00 0.00 0.00 92 1017.0
20260906033551 67 258 0.9 1.7 0.00 0.00 0.00 92 1017.0
20260906033051 67 269 0.9 1.7 0.00 0.00 0.00 92 1017.2
20260906032551 68 280 0.9 1.7 0.00 0.00 0.00 91 1017.2
20260906032051 68 260 1.7 1.7 0.00 0.00 0.00 91 1017.2
20260906031551 68 262 1.7 1.7 0.00 0.00 0.00 90 1017.2
20260906031051 68 262 1.7 1.7 0.00 0.00 0.00 90 1017.3
20260906030550 68 253 1.7 1.7 0.00 0.00 0.00 90 1017.3
20260906030052 68 280 0.9 1.7 0.00 0.00 0.00 90 1017.4
20260906025552 69 240 1.7 2.6 0.00 0.00 0.00 89 1017.4
20260906025051 69 259 1.7 1.7 0.00 0.00 0.00 89 1017.5
20260906024551 69 266 1.7 1.7 0.00 0.00 0.00 89 1017.6
20260906024051 69 256 1.7 2.6 0.00 0.00 0.00 89 1017.5
20260906023552 69 242 1.7 2.6 0.00 0.00 0.00 88 1017.4
20260906023050 70 272 1.7 2.6 0.00 0.00 0.00 87 1017.3
20260906022551 70 257 1.7 1.7 0.00 0.00 0.00 87 1017.4
20260906022051 70 277 0.9 0.9 0.00 0.00 0.00 87 1017.4
20260906021551 70 291 0.9 1.7 0.00 0.00 0.00 87 1017.5
20260906021051 70 253 0.9 1.7 0.00 0.00 0.00 86 1017.4
20260906020551 71 234 0.9 1.7 0.00 0.00 0.00 85 1017.4
20260906020051 71 253 0.9 1.7 0.00 0.00 0.00 85 1017.3
20260906015551 71 220 1.7 2.6 0.00 0.00 0.00 84 1017.2
20260906015052 71 223 1.7 1.7 0.00 0.00 0.00 84 1017.2
20260906014552 72 240 1.7 1.7 0.00 0.00 0.00 83 1017.3
20260906014051 72 266 0.9 0.9 0.00 0.00 0.00 82 1017.2
20260906013551 72 301 0.9 0.9 0.00 0.00 0.00 82 1017.2
20260906013051 72 264 0.9 1.7 0.00 0.00 0.00 81 1017.2
20260906012551 73 251 0.9 1.7 0.00 0.00 0.00 81 1017.1
20260906012051 73 258 0.9 1.7 0.00 0.00 0.00 80 1017.0
20260906011551 73 236 0.9 1.7 0.00 0.00 0.00 80 1017.0
20260906011051 73 270 0.9 1.7 0.00 0.00 0.00 80 1016.9
20260906010551 72 229 0.9 1.7 0.00 0.00 0.00 80 1016.8
20260906010051 72 258 0.9 1.7 0.00 0.00 0.00 80 1016.8
20260906005551 73 246 0.9 1.7 0.00 0.00 0.00 80 1016.8
20260906005051 73 283 0.9 0.9 0.00 0.00 0.00 79 1016.8
20260906004551 73 213 0.9 2.6 0.00 0.00 0.00 79 1016.7
20260906004051 73 200 1.7 2.6 0.00 0.00 0.00 78 1016.5
20260906003551 73 271 0.9 0.9 0.00 0.00 0.00 78 1016.5
20260906003051 73 203 1.7 2.6 0.00 0.00 0.00 77 1016.5
20260906002551 74 311 0.9 1.7 0.00 0.00 0.00 77 1016.4
20260906002052 74 251 0.9 1.7 0.00 0.00 0.00 77 1016.5
20260906001551 74 230 0.9 1.7 0.00 0.00 0.00 77 1016.5
20260906001051 74 226 1.7 2.6 0.00 0.00 0.00 76 1016.5
20260906000551 74 234 0.9 1.7 0.00 0.00 0.00 76 1016.5
20260906000051 74 214 0.9 1.7 0.00 0.00 0.00 76 1016.4
20260905235551 75 273 0.9 1.7 0.00 0.00 0.00 75 1016.4
20260905235051 75 234 0.9 2.6 0.00 0.00 0.00 74 1016.4
20260905234551 75 237 0.9 1.7 0.00 0.00 0.00 73 1016.3
20260905234051 75 258 0.9 1.7 0.00 0.00 0.00 73 1016.3
20260905233551 76 230 1.7 2.6 0.00 0.00 0.00 73 1016.4
20260905233051 76 300 0.9 1.7 0.00 0.00 0.00 72 1016.3
20260905232552 76 279 0.9 1.7 0.00 0.00 0.00 71 1016.3
20260905232052 76 200 1.7 2.6 0.00 0.00 0.00 72 1016.3
20260905231551 77 265 0.9 1.7 0.00 0.00 0.00 71 1016.3
20260905231051 77 255 0.9 1.7 0.00 0.00 0.00 70 1016.4
20260905230551 78 294 0.9 1.7 0.00 0.00 0.00 70 1016.5
20260905230051 78 285 0.9 1.7 0.00 0.00 0.00 69 1016.5
20260905225551 79 272 0.9 1.7 0.00 0.00 0.00 67 1016.5
20260905225051 79 284 1.7 1.7 0.00 0.00 0.00 68 1016.4
20260905224551 80 265 0.9 1.7 0.00 0.00 0.00 66 1016.4
20260905224053 80 265 0.9 1.7 0.00 0.00 0.00 65 1016.4
20260905223551 81 263 0.9 1.7 0.00 0.00 0.00 63 1016.4
20260905223051 81 302 0.9 2.6 0.00 0.00 0.00 62 1016.3
20260905222552 81 214 1.7 3.5 0.00 0.00 0.00 63 1016.4
20260905222051 81 235 2.6 3.5 0.00 0.00 0.00 62 1016.4
20260905221551 82 287 1.7 2.6 0.00 0.00 0.00 62 1016.3
20260905221051 82 249 1.7 3.5 0.00 0.00 0.00 62 1016.1
20260905220553 83 213 3.5 5.2 0.00 0.00 0.00 61 1016.0
20260905220052 83 211 2.6 3.5 0.00 0.00 0.00 61 1016.0
20260905215551 83 178 1.7 2.6 0.00 0.00 0.00 61 1015.9
20260905215051 83 226 2.6 3.5 0.00 0.00 0.00 60 1016.0
20260905214551 84 288 1.7 2.6 0.00 0.00 0.00 59 1016.0
20260905214051 83 221 1.7 2.6 0.00 0.00 0.00 58 1015.8
20260905213551 83 311 0.9 1.7 0.00 0.00 0.00 60 1015.9
20260905213051 84 228 0.9 2.6 0.00 0.00 0.00 58 1015.8
20260905212551 84 250 0.0 1.7 0.00 0.00 0.00 57 1015.7
20260905212051 85 196 1.7 3.5 0.00 0.00 0.00 56 1015.7
20260905211551 85 267 1.7 3.5 0.00 0.00 0.00 56 1015.7
20260905211051 85 199 1.7 2.6 0.00 0.00 0.00 56 1015.7
20260905210551 84 214 1.7 3.5 0.00 0.00 0.00 56 1015.7
20260905210051 84 175 1.7 2.6 0.00 0.00 0.00 56 1015.6
20260905205552 84 292 0.9 1.7 0.00 0.00 0.00 56 1015.6
20260905205052 84 142 2.6 5.2 0.00 0.00 0.00 57 1015.7
20260905204551 84 195 1.7 3.5 0.00 0.00 0.00 58 1015.7
20260905204051 84 227 4.3 7.0 0.00 0.00 0.00 56 1015.6
20260905203551 85 189 0.9 5.2 0.00 0.00 0.00 56 1015.6
20260905203051 85 323 0.9 1.7 0.00 0.00 0.00 56 1015.6
20260905202551 85 208 3.5 5.2 0.00 0.00 0.00 55 1015.6
20260905202051 85 209 1.7 3.5 0.00 0.00 0.00 52 1015.5
20260905201551 85 183 1.7 2.6 0.00 0.00 0.00 54 1015.6
20260905201052 84 187 1.7 3.5 0.00 0.00 0.00 55 1015.6
20260905200551 85 326 0.0 1.7 0.00 0.00 0.00 55 1015.6
20260905200051 85 217 0.9 1.7 0.00 0.00 0.00 53 1015.6
20260905195551 85 244 0.9 2.6 0.00 0.00 0.00 54 1015.6
20260905195051 85 221 3.5 5.2 0.00 0.00 0.00 54 1015.6
20260905194551 86 161 0.9 3.5 0.00 0.00 0.00 52 1015.7
20260905194051 85 187 0.9 2.6 0.00 0.00 0.00 52 1015.7
20260905193551 85 195 0.9 3.5 0.00 0.00 0.00 53 1015.8
20260905193051 84 167 2.6 4.3 0.00 0.00 0.00 55 1015.9
20260905192551 83 288 0.9 1.7 0.00 0.00 0.00 55 1015.9
20260905192051 83 242 2.6 3.5 0.00 0.00 0.00 55 1016.0
20260905191551 83 214 3.5 5.2 0.00 0.00 0.00 54 1015.9
20260905191051 83 215 1.7 4.3 0.00 0.00 0.00 56 1016.0
20260905190551 82 211 1.7 1.7 0.00 0.00 0.00 59 1016.0
20260905190051 82 231 3.5 4.3 0.00 0.00 0.00 59 1016.1
20260905185551 82 256 2.6 5.2 0.00 0.00 0.00 57 1016.2
20260905185051 82 238 3.5 5.2 0.00 0.00 0.00 60 1016.2
20260905184551 82 275 3.5 4.3 0.00 0.00 0.00 61 1016.3
20260905184051 82 218 3.5 4.3 0.00 0.00 0.00 67 1016.3
20260905183551 81 247 1.7 3.5 0.00 0.00 0.00 67 1016.4
20260905183052 80 253 2.6 4.3 0.00 0.00 0.00 67 1016.5
20260905182551 80 222 2.6 3.5 0.00 0.00 0.00 70 1016.7
20260905182051 79 201 1.7 2.6 0.00 0.00 0.00 70 1016.7
20260905181551 80 228 3.5 4.3 0.00 0.00 0.00 69 1016.9
20260905181051 80 241 3.5 5.2 0.00 0.00 0.00 69 1016.9
20260905180551 80 208 1.7 1.7 0.00 0.00 0.00 70 1017.0
20260905180051 79 175 2.6 3.5 0.00 0.00 0.00 70 1016.9
20260905175551 79 273 1.7 3.5 0.00 0.00 0.00 69 1016.8
20260905175051 78 216 3.5 4.3 0.00 0.00 0.00 70 1016.8
20260905174551 77 263 1.7 2.6 0.00 0.00 0.00 72 1016.9
20260905174051 77 272 0.9 1.7 0.00 0.00 0.00 72 1016.8
20260905173551 77 224 2.6 3.5 0.00 0.00 0.00 73 1016.9
20260905173051 77 263 2.6 3.5 0.00 0.00 0.00 72 1017.1
20260905172551 76 251 2.6 5.2 0.00 0.00 0.00 76 1017.0
20260905172051 75 273 7.0 11.3 0.00 0.00 0.00 77 1016.9
20260905171551 75 254 5.2 7.0 0.00 0.00 0.00 78 1017.0
20260905171051 74 230 4.3 7.0 0.00 0.00 0.00 80 1017.0
20260905170551 74 272 5.2 7.8 0.00 0.00 0.00 81 1017.1
20260905170052 73 254 3.5 5.2 0.00 0.00 0.00 83 1017.0
20260905165551 73 245 2.6 4.3 0.00 0.00 0.00 84 1017.2
20260905165051 73 236 3.5 5.2 0.00 0.00 0.00 84 1017.3
20260905164551 73 242 4.3 6.1 0.00 0.00 0.00 83 1017.6
20260905164051 73 262 4.3 7.8 0.00 0.00 0.00 83 1017.9
20260905163138 73 264 2.6 5.2 0.00 0.00 0.00 84 1018.1
20260905162551 73 250 3.5 5.2 0.00 0.00 0.00 84 1018.4
20260905162051 73 260 3.5 6.1 0.00 0.00 0.00 84 1018.7
20260905161551 73 212 3.5 4.3 0.00 0.00 0.00 85 1018.7
20260905161051 73 228 2.6 3.5 0.00 0.00 0.00 84 1018.7
20260905160551 73 232 1.7 3.5 0.00 0.00 0.00 85 1018.8
20260905160052 73 216 2.6 3.5 0.00 0.00 0.00 85 1018.9
20260905155551 73 223 1.7 2.6 0.00 0.00 0.00 84 1018.9
20260905155051 73 216 1.7 2.6 0.00 0.00 0.00 84 1019.0
20260905154551 73 276 0.9 1.7 0.00 0.00 0.00 84 1019.0
20260905154051 73 228 1.7 1.7 0.00 0.00 0.00 83 1019.0
20260905153551 74 222 1.7 2.6 0.00 0.00 0.00 84 1018.9
20260905153052 74 263 1.7 1.7 0.00 0.00 0.00 83 1019.1
20260905152552 74 218 3.5 3.5 0.00 0.00 0.00 82 1019.1
20260905152051 74 269 0.9 1.7 0.00 0.00 0.00 82 1019.0
20260905151552 74 172 1.7 3.5 0.00 0.00 0.00 83 1019.1
20260905151052 74 292 0.9 1.7 0.00 0.00 0.00 82 1019.2
20260905150551 74 150 1.7 3.5 0.00 0.00 0.00 82 1019.2
20260905150052 73 308 0.9 2.6 0.00 0.00 0.00 83 1019.1
20260905145551 73 309 1.7 1.7 0.00 0.00 0.00 85 1019.2
20260905145052 73 339 1.7 2.6 0.00 0.00 0.00 84 1019.1
20260905144551 74 137 1.7 1.7 0.00 0.00 0.00 85 1018.7
20260905144052 75 316 0.9 1.7 0.00 0.00 0.00 83 1018.8
20260905143552 76 337 0.9 1.7 0.00 0.00 0.00 83 1018.7
20260905143051 76 319 1.7 5.2 0.00 0.00 0.00 81 1018.4
20260905142551 76 238 2.6 3.5 0.00 0.00 0.00 82 1018.2
20260905142051 75 246 3.5 5.2 0.00 0.00 0.00 82 1018.1
20260905141600 75 259 3.5 3.5 0.00 0.00 0.00 82 1017.8
20260905141052 75 248 2.6 4.3 0.00 0.00 0.00 82 1017.9
20260905140551 75 244 3.5 4.3 0.00 0.00 0.00 82 1017.9
20260905140051 75 230 3.5 5.2 0.00 0.00 0.00 82 1017.9
20260905135551 75 244 2.6 3.5 0.00 0.00 0.00 82 1018.1
20260905135051 75 238 5.2 7.0 0.00 0.00 0.00 81 1017.9
20260905134551 75 252 4.3 5.2 0.00 0.00 0.00 81 1017.9
20260905134051 75 263 4.3 5.2 0.00 0.00 0.00 81 1018.1
20260905133551 75 267 3.5 4.3 0.00 0.00 0.00 81 1018.1
20260905133051 75 252 5.2 7.0 0.00 0.00 0.00 82 1018.2
20260905132551 75 237 3.5 4.3 0.00 0.00 0.00 82 1018.2
20260905132054 75 249 3.5 5.2 0.00 0.00 0.00 82 1018.2
20260905131551 75 265 2.6 3.5 0.00 0.00 0.00 82 1018.2
20260905131052 75 265 3.5 5.2 0.00 0.00 0.00 82 1018.2
20260905130551 75 267 2.6 3.5 0.00 0.00 0.00 82 1018.2
20260905130051 75 256 2.6 3.5 0.00 0.00 0.00 82 1018.1
20260905125551 75 226 2.6 3.5 0.00 0.00 0.00 83 1018.2
20260905125051 74 273 2.6 2.6 0.00 0.00 0.00 83 1018.3
20260905124553 74 237 3.5 4.3 0.00 0.00 0.00 84 1018.3
20260905124051 73 228 2.6 2.6 0.00 0.00 0.00 85 1018.3
20260905123551 72 238 1.7 3.5 0.00 0.00 0.00 85 1018.3
20260905123051 71 249 2.6 3.5 0.00 0.00 0.00 87 1018.3
20260905122553 71 228 2.6 3.5 0.00 0.00 0.00 88 1018.1
20260905122051 70 279 1.7 1.7 0.00 0.00 0.00 90 1018.1
20260905121551 69 260 1.7 1.7 0.00 0.00 0.00 90 1018.1
20260905121051 69 256 2.6 3.5 0.00 0.00 0.00 91 1018.1
20260905120551 69 226 3.5 3.5 0.00 0.00 0.00 91 1017.9
20260905120051 69 235 2.6 2.6 0.00 0.00 0.00 91 1017.9
20260905115551 69 241 1.7 2.6 0.00 0.00 0.00 92 1017.9
20260905115051 68 250 1.7 1.7 0.00 0.00 0.00 92 1017.8
20260905114552 68 273 1.7 1.7 0.00 0.00 0.00 92 1017.9
20260905114051 68 288 0.9 1.7 0.00 0.00 0.00 92 1017.9
20260905113551 68 281 1.7 1.7 0.00 0.00 0.00 93 1017.8
20260905113051 68 246 1.7 2.6 0.00 0.00 0.00 93 1017.8